Aérodrome :
LOGIN :

S'inscrire | Disclaimer

   EN    FR    IT 

 










Légende :    VFR   VFR Marginal   IFR   IFR Intensif   IFR Très Intensif
Visi : 
Plafond : 
>= 8 km
>= 3000ft
5 à 8 km
1000 à 3000 ft
1500m à 5 km
500 à 1000 ft
800 à 1500m
200 à 500 ft
< 800m
< 200 ft
Symboles :   Orages  Brouillard  Fortes neiges  Fortes précipitations  Vent > 20 kt
SIGMETs :   Divers  Orages  Givrage  Turbulence  Onde Orograph.  Cendres Volcan.






- Altitude de l'aérodrome : 586 ft


LIMN - Cameri Air Force Base

DERNIER METAR :
  • 081155Z /////KT 6000 FEW030 11/03 Q1016 RMK SCT VIS MIN 6000 WHT

METARs EXPIRÉS :
  • 081055Z /////KT 5000 BR FEW025 10/02 Q1017 RMK FEW VIS MIN 5000 WHT
  • 080955Z /////KT 5000 BR NSC 08/01 Q1017 RMK SKC VIS MIN 5000 WHT

TAF TAF LIMN
Valide du 08 à 12h jusqu'au 08 à 21h UTC


081100Z 0812/0821 05006KT 8000 FEW030
TEMPO 0812/0821 5000 BR SCT060



MET'MAP, la Météo Aéronautique d'un coup d'oeil ! - Copyright ORBIFLY Décembre 2007 - Disclaimer

ORBIFLY MET'MAP TEAM :

Programmation & Développement : Alexandra Zaïnal
Sur une idée originale de : Baudouin d'Aumeries
Assistance à la programmation : Marc-Olivier Méhu
Soutien technique & logistique : Manuel Goepfert

Contact : metmap@orbifly.com




SOURCES & CREDITS :

   NOAA